sensor_id;sensor_type;location;lat;lon;timestamp;P1;durP1;ratioP1;P2;durP2;ratioP2
3523;SDS011;1776;53.330;11.498;2023-04-12T00:00:48;5.60;;;2.70;;
3523;SDS011;1776;53.330;11.498;2023-04-12T00:03:16;4.83;;;2.37;;
3523;SDS011;1776;53.330;11.498;2023-04-12T00:05:44;4.10;;;2.40;;
3523;SDS011;1776;53.330;11.498;2023-04-12T00:08:11;2.83;;;2.57;;
3523;SDS011;1776;53.330;11.498;2023-04-12T00:10:36;6.33;;;2.30;;
3523;SDS011;1776;53.330;11.498;2023-04-12T00:13:02;3.20;;;2.20;;
3523;SDS011;1776;53.330;11.498;2023-04-12T00:15:27;3.23;;;2.43;;
3523;SDS011;1776;53.330;11.498;2023-04-12T00:17:52;7.70;;;2.20;;
3523;SDS011;1776;53.330;11.498;2023-04-12T00:20:18;5.57;;;2.30;;
3523;SDS011;1776;53.330;11.498;2023-04-12T00:22:43;5.03;;;2.30;;
3523;SDS011;1776;53.330;11.498;2023-04-12T00:25:09;3.50;;;2.70;;
3523;SDS011;1776;53.330;11.498;2023-04-12T00:27:34;2.70;;;2.10;;
3523;SDS011;1776;53.330;11.498;2023-04-12T00:30:00;5.07;;;2.33;;
3523;SDS011;1776;53.330;11.498;2023-04-12T00:32:26;3.67;;;1.80;;
3523;SDS011;1776;53.330;11.498;2023-04-12T00:34:51;2.90;;;2.30;;
3523;SDS011;1776;53.330;11.498;2023-04-12T00:37:17;3.90;;;2.37;;
3523;SDS011;1776;53.330;11.498;2023-04-12T00:39:42;2.57;;;2.23;;
3523;SDS011;1776;53.330;11.498;2023-04-12T00:42:08;3.87;;;2.30;;
3523;SDS011;1776;53.330;11.498;2023-04-12T00:44:33;3.83;;;2.70;;
3523;SDS011;1776;53.330;11.498;2023-04-12T00:46:59;4.83;;;3.00;;
3523;SDS011;1776;53.330;11.498;2023-04-12T00:49:27;2.93;;;1.90;;
3523;SDS011;1776;53.330;11.498;2023-04-12T00:51:56;2.53;;;1.70;;
3523;SDS011;1776;53.330;11.498;2023-04-12T00:54:47;5.60;;;2.20;;
3523;SDS011;1776;53.330;11.498;2023-04-12T00:57:13;3.80;;;2.13;;
3523;SDS011;1776;53.330;11.498;2023-04-12T00:59:38;7.57;;;2.30;;
3523;SDS011;1776;53.330;11.498;2023-04-12T01:02:04;3.13;;;2.30;;
3523;SDS011;1776;53.330;11.498;2023-04-12T01:04:31;2.77;;;1.77;;
3523;SDS011;1776;53.330;11.498;2023-04-12T01:07:01;3.60;;;2.27;;
3523;SDS011;1776;53.330;11.498;2023-04-12T01:12:46;4.80;;;1.93;;
3523;SDS011;1776;53.330;11.498;2023-04-12T01:15:19;3.00;;;1.97;;
3523;SDS011;1776;53.330;11.498;2023-04-12T01:18:03;2.10;;;1.83;;
3523;SDS011;1776;53.330;11.498;2023-04-12T01:20:42;4.97;;;2.03;;
3523;SDS011;1776;53.330;11.498;2023-04-12T01:23:33;5.07;;;1.77;;
3523;SDS011;1776;53.330;11.498;2023-04-12T01:26:28;3.97;;;1.97;;
3523;SDS011;1776;53.330;11.498;2023-04-12T01:28:57;7.63;;;2.00;;
3523;SDS011;1776;53.330;11.498;2023-04-12T01:31:24;4.50;;;1.73;;
3523;SDS011;1776;53.330;11.498;2023-04-12T01:33:52;4.10;;;1.90;;
3523;SDS011;1776;53.330;11.498;2023-04-12T01:36:20;4.20;;;2.40;;
3523;SDS011;1776;53.330;11.498;2023-04-12T01:38:48;5.17;;;1.70;;
3523;SDS011;1776;53.330;11.498;2023-04-12T01:41:13;2.10;;;1.70;;
3523;SDS011;1776;53.330;11.498;2023-04-12T01:43:40;2.53;;;1.80;;
3523;SDS011;1776;53.330;11.498;2023-04-12T01:46:09;3.23;;;2.10;;
3523;SDS011;1776;53.330;11.498;2023-04-12T01:48:37;2.27;;;1.77;;
3523;SDS011;1776;53.330;11.498;2023-04-12T01:51:09;2.50;;;1.70;;
3523;SDS011;1776;53.330;11.498;2023-04-12T01:53:52;1.73;;;1.50;;
3523;SDS011;1776;53.330;11.498;2023-04-12T01:56:21;3.77;;;2.10;;
3523;SDS011;1776;53.330;11.498;2023-04-12T01:58:49;5.30;;;2.20;;
3523;SDS011;1776;53.330;11.498;2023-04-12T02:01:17;4.67;;;2.10;;
3523;SDS011;1776;53.330;11.498;2023-04-12T02:03:43;4.30;;;2.33;;
3523;SDS011;1776;53.330;11.498;2023-04-12T02:06:10;2.43;;;1.60;;
3523;SDS011;1776;53.330;11.498;2023-04-12T02:08:36;8.23;;;1.80;;
3523;SDS011;1776;53.330;11.498;2023-04-12T02:11:08;3.73;;;1.83;;
3523;SDS011;1776;53.330;11.498;2023-04-12T02:13:34;3.20;;;2.03;;
3523;SDS011;1776;53.330;11.498;2023-04-12T02:15:59;2.60;;;2.10;;
3523;SDS011;1776;53.330;11.498;2023-04-12T02:18:26;4.00;;;2.37;;
3523;SDS011;1776;53.330;11.498;2023-04-12T02:20:51;4.13;;;2.43;;
3523;SDS011;1776;53.330;11.498;2023-04-12T02:23:17;2.80;;;2.20;;
3523;SDS011;1776;53.330;11.498;2023-04-12T02:25:42;3.07;;;1.90;;
3523;SDS011;1776;53.330;11.498;2023-04-12T02:28:10;4.57;;;2.27;;
3523;SDS011;1776;53.330;11.498;2023-04-12T02:30:36;2.53;;;2.10;;
3523;SDS011;1776;53.330;11.498;2023-04-12T02:33:02;3.03;;;2.00;;
3523;SDS011;1776;53.330;11.498;2023-04-12T02:35:29;5.20;;;2.27;;
3523;SDS011;1776;53.330;11.498;2023-04-12T02:37:55;4.73;;;2.37;;
3523;SDS011;1776;53.330;11.498;2023-04-12T02:40:21;3.73;;;2.37;;
3523;SDS011;1776;53.330;11.498;2023-04-12T02:42:47;4.77;;;2.07;;
3523;SDS011;1776;53.330;11.498;2023-04-12T02:45:12;4.90;;;2.60;;
3523;SDS011;1776;53.330;11.498;2023-04-12T02:47:38;3.07;;;2.73;;
3523;SDS011;1776;53.330;11.498;2023-04-12T02:50:04;3.60;;;1.50;;
3523;SDS011;1776;53.330;11.498;2023-04-12T02:52:30;5.93;;;2.47;;
3523;SDS011;1776;53.330;11.498;2023-04-12T02:54:57;4.07;;;2.30;;
3523;SDS011;1776;53.330;11.498;2023-04-12T02:57:22;3.70;;;2.17;;
3523;SDS011;1776;53.330;11.498;2023-04-12T02:59:51;5.43;;;2.67;;
3523;SDS011;1776;53.330;11.498;2023-04-12T03:02:21;2.60;;;1.73;;
3523;SDS011;1776;53.330;11.498;2023-04-12T03:04:47;2.30;;;1.80;;
3523;SDS011;1776;53.330;11.498;2023-04-12T03:07:17;1.97;;;1.83;;
3523;SDS011;1776;53.330;11.498;2023-04-12T03:09:44;2.80;;;1.90;;
3523;SDS011;1776;53.330;11.498;2023-04-12T03:12:10;2.87;;;2.17;;
3523;SDS011;1776;53.330;11.498;2023-04-12T03:14:35;4.43;;;2.17;;
3523;SDS011;1776;53.330;11.498;2023-04-12T03:17:01;2.63;;;2.17;;
3523;SDS011;1776;53.330;11.498;2023-04-12T03:19:26;2.60;;;2.40;;
3523;SDS011;1776;53.330;11.498;2023-04-12T03:21:52;4.83;;;3.73;;
3523;SDS011;1776;53.330;11.498;2023-04-12T03:24:18;3.20;;;2.70;;
3523;SDS011;1776;53.330;11.498;2023-04-12T03:26:43;3.83;;;2.23;;
3523;SDS011;1776;53.330;11.498;2023-04-12T03:29:08;5.00;;;2.27;;
3523;SDS011;1776;53.330;11.498;2023-04-12T03:31:34;2.30;;;1.90;;
3523;SDS011;1776;53.330;11.498;2023-04-12T03:34:00;3.07;;;2.20;;
3523;SDS011;1776;53.330;11.498;2023-04-12T03:36:25;4.70;;;2.57;;
3523;SDS011;1776;53.330;11.498;2023-04-12T03:38:54;3.60;;;2.57;;
3523;SDS011;1776;53.330;11.498;2023-04-12T03:41:22;3.17;;;2.27;;
3523;SDS011;1776;53.330;11.498;2023-04-12T03:43:48;4.23;;;2.40;;
3523;SDS011;1776;53.330;11.498;2023-04-12T03:46:13;4.93;;;2.43;;
3523;SDS011;1776;53.330;11.498;2023-04-12T03:48:39;3.50;;;2.20;;
3523;SDS011;1776;53.330;11.498;2023-04-12T03:51:05;3.03;;;1.93;;
3523;SDS011;1776;53.330;11.498;2023-04-12T03:53:32;2.60;;;2.33;;
3523;SDS011;1776;53.330;11.498;2023-04-12T03:56:00;5.10;;;2.60;;
3523;SDS011;1776;53.330;11.498;2023-04-12T03:58:25;3.60;;;2.53;;
3523;SDS011;1776;53.330;11.498;2023-04-12T04:00:50;3.40;;;2.83;;
3523;SDS011;1776;53.330;11.498;2023-04-12T04:03:16;7.83;;;1.90;;
3523;SDS011;1776;53.330;11.498;2023-04-12T04:05:42;2.40;;;2.00;;
3523;SDS011;1776;53.330;11.498;2023-04-12T04:08:07;3.17;;;2.30;;
3523;SDS011;1776;53.330;11.498;2023-04-12T04:10:33;4.77;;;2.30;;
3523;SDS011;1776;53.330;11.498;2023-04-12T04:12:58;3.43;;;2.33;;
3523;SDS011;1776;53.330;11.498;2023-04-12T04:15:24;3.33;;;2.50;;
3523;SDS011;1776;53.330;11.498;2023-04-12T04:17:50;5.67;;;2.50;;
3523;SDS011;1776;53.330;11.498;2023-04-12T04:20:16;4.17;;;2.10;;
3523;SDS011;1776;53.330;11.498;2023-04-12T04:22:42;2.17;;;1.87;;
3523;SDS011;1776;53.330;11.498;2023-04-12T04:25:09;3.13;;;2.50;;
3523;SDS011;1776;53.330;11.498;2023-04-12T04:27:38;3.27;;;2.43;;
3523;SDS011;1776;53.330;11.498;2023-04-12T04:30:04;9.93;;;2.30;;
3523;SDS011;1776;53.330;11.498;2023-04-12T04:32:31;3.90;;;2.50;;
3523;SDS011;1776;53.330;11.498;2023-04-12T04:34:57;2.97;;;2.20;;
3523;SDS011;1776;53.330;11.498;2023-04-12T04:37:29;4.00;;;1.80;;
3523;SDS011;1776;53.330;11.498;2023-04-12T04:39:55;2.00;;;1.80;;
3523;SDS011;1776;53.330;11.498;2023-04-12T04:42:21;4.67;;;2.10;;
3523;SDS011;1776;53.330;11.498;2023-04-12T04:44:47;2.10;;;1.90;;
3523;SDS011;1776;53.330;11.498;2023-04-12T04:47:15;3.47;;;2.13;;
3523;SDS011;1776;53.330;11.498;2023-04-12T04:49:41;3.07;;;2.23;;
3523;SDS011;1776;53.330;11.498;2023-04-12T04:52:07;4.30;;;2.10;;
3523;SDS011;1776;53.330;11.498;2023-04-12T04:54:33;5.03;;;2.50;;
3523;SDS011;1776;53.330;11.498;2023-04-12T04:56:59;3.60;;;2.37;;
3523;SDS011;1776;53.330;11.498;2023-04-12T04:59:25;2.87;;;2.20;;
3523;SDS011;1776;53.330;11.498;2023-04-12T05:01:51;3.90;;;1.90;;
3523;SDS011;1776;53.330;11.498;2023-04-12T05:04:16;2.67;;;2.07;;
3523;SDS011;1776;53.330;11.498;2023-04-12T05:06:41;2.20;;;2.00;;
3523;SDS011;1776;53.330;11.498;2023-04-12T05:09:07;5.77;;;4.03;;
3523;SDS011;1776;53.330;11.498;2023-04-12T05:11:32;3.07;;;1.70;;
3523;SDS011;1776;53.330;11.498;2023-04-12T05:13:57;10.13;;;2.90;;
3523;SDS011;1776;53.330;11.498;2023-04-12T05:16:22;4.70;;;2.47;;
3523;SDS011;1776;53.330;11.498;2023-04-12T05:18:48;3.13;;;2.20;;
3523;SDS011;1776;53.330;11.498;2023-04-12T05:21:13;5.37;;;2.43;;
3523;SDS011;1776;53.330;11.498;2023-04-12T05:23:42;4.93;;;2.13;;
3523;SDS011;1776;53.330;11.498;2023-04-12T05:26:09;6.43;;;2.50;;
3523;SDS011;1776;53.330;11.498;2023-04-12T05:28:34;3.47;;;2.10;;
3523;SDS011;1776;53.330;11.498;2023-04-12T05:31:00;3.30;;;1.90;;
3523;SDS011;1776;53.330;11.498;2023-04-12T05:33:25;4.73;;;2.70;;
3523;SDS011;1776;53.330;11.498;2023-04-12T05:35:50;3.33;;;2.00;;
3523;SDS011;1776;53.330;11.498;2023-04-12T05:38:16;4.07;;;2.10;;
3523;SDS011;1776;53.330;11.498;2023-04-12T05:40:41;4.20;;;2.10;;
3523;SDS011;1776;53.330;11.498;2023-04-12T05:43:08;5.70;;;2.30;;
3523;SDS011;1776;53.330;11.498;2023-04-12T05:45:36;10.23;;;2.83;;
3523;SDS011;1776;53.330;11.498;2023-04-12T05:48:01;3.90;;;2.43;;
3523;SDS011;1776;53.330;11.498;2023-04-12T05:50:27;4.20;;;2.57;;
3523;SDS011;1776;53.330;11.498;2023-04-12T05:52:53;9.93;;;2.60;;
3523;SDS011;1776;53.330;11.498;2023-04-12T05:55:19;4.90;;;2.47;;
3523;SDS011;1776;53.330;11.498;2023-04-12T05:57:45;8.30;;;2.10;;
3523;SDS011;1776;53.330;11.498;2023-04-12T06:00:11;6.53;;;2.50;;
3523;SDS011;1776;53.330;11.498;2023-04-12T06:02:38;3.80;;;3.10;;
3523;SDS011;1776;53.330;11.498;2023-04-12T06:05:04;4.20;;;2.63;;
3523;SDS011;1776;53.330;11.498;2023-04-12T06:07:30;9.40;;;2.63;;
3523;SDS011;1776;53.330;11.498;2023-04-12T06:09:55;2.43;;;2.10;;
3523;SDS011;1776;53.330;11.498;2023-04-12T06:12:20;6.90;;;2.27;;
3523;SDS011;1776;53.330;11.498;2023-04-12T06:14:46;10.00;;;2.47;;
3523;SDS011;1776;53.330;11.498;2023-04-12T06:17:11;7.53;;;2.33;;
3523;SDS011;1776;53.330;11.498;2023-04-12T06:19:36;4.30;;;2.20;;
3523;SDS011;1776;53.330;11.498;2023-04-12T06:22:01;4.33;;;2.60;;
3523;SDS011;1776;53.330;11.498;2023-04-12T06:24:26;4.87;;;2.20;;
3523;SDS011;1776;53.330;11.498;2023-04-12T06:26:52;4.87;;;3.20;;
3523;SDS011;1776;53.330;11.498;2023-04-12T06:29:17;5.40;;;3.03;;
3523;SDS011;1776;53.330;11.498;2023-04-12T06:31:42;6.33;;;2.27;;
3523;SDS011;1776;53.330;11.498;2023-04-12T06:34:08;2.60;;;2.20;;
3523;SDS011;1776;53.330;11.498;2023-04-12T06:36:33;2.97;;;2.17;;
3523;SDS011;1776;53.330;11.498;2023-04-12T06:38:58;5.27;;;2.43;;
3523;SDS011;1776;53.330;11.498;2023-04-12T06:41:24;3.63;;;2.60;;
3523;SDS011;1776;53.330;11.498;2023-04-12T06:43:49;4.43;;;2.20;;
3523;SDS011;1776;53.330;11.498;2023-04-12T06:46:14;6.73;;;2.40;;
3523;SDS011;1776;53.330;11.498;2023-04-12T06:48:42;2.33;;;1.73;;
3523;SDS011;1776;53.330;11.498;2023-04-12T06:51:07;5.00;;;2.40;;
3523;SDS011;1776;53.330;11.498;2023-04-12T06:53:33;5.80;;;2.00;;
3523;SDS011;1776;53.330;11.498;2023-04-12T06:56:03;8.70;;;2.50;;
3523;SDS011;1776;53.330;11.498;2023-04-12T06:58:29;6.93;;;2.53;;
3523;SDS011;1776;53.330;11.498;2023-04-12T07:01:03;5.40;;;2.40;;
3523;SDS011;1776;53.330;11.498;2023-04-12T07:03:29;10.13;;;2.40;;
3523;SDS011;1776;53.330;11.498;2023-04-12T07:05:57;5.00;;;2.03;;
3523;SDS011;1776;53.330;11.498;2023-04-12T07:08:23;3.13;;;2.00;;
3523;SDS011;1776;53.330;11.498;2023-04-12T07:10:52;7.03;;;2.70;;
3523;SDS011;1776;53.330;11.498;2023-04-12T07:13:18;3.03;;;2.40;;
3523;SDS011;1776;53.330;11.498;2023-04-12T07:15:43;3.33;;;2.20;;
3523;SDS011;1776;53.330;11.498;2023-04-12T07:18:08;4.60;;;2.03;;
3523;SDS011;1776;53.330;11.498;2023-04-12T07:20:34;4.70;;;2.10;;
3523;SDS011;1776;53.330;11.498;2023-04-12T07:22:59;4.40;;;1.87;;
3523;SDS011;1776;53.330;11.498;2023-04-12T07:25:24;8.23;;;2.20;;
3523;SDS011;1776;53.330;11.498;2023-04-12T07:27:49;2.67;;;2.40;;
3523;SDS011;1776;53.330;11.498;2023-04-12T07:30:15;5.33;;;2.30;;
3523;SDS011;1776;53.330;11.498;2023-04-12T07:32:40;3.20;;;2.10;;
3523;SDS011;1776;53.330;11.498;2023-04-12T07:35:06;7.07;;;1.90;;
3523;SDS011;1776;53.330;11.498;2023-04-12T07:37:31;4.00;;;1.80;;
3523;SDS011;1776;53.330;11.498;2023-04-12T07:39:56;2.70;;;1.80;;
3523;SDS011;1776;53.330;11.498;2023-04-12T07:42:22;4.43;;;1.50;;
3523;SDS011;1776;53.330;11.498;2023-04-12T07:44:47;3.23;;;1.70;;
3523;SDS011;1776;53.330;11.498;2023-04-12T07:47:12;6.17;;;1.67;;
3523;SDS011;1776;53.330;11.498;2023-04-12T07:49:37;3.87;;;2.43;;
3523;SDS011;1776;53.330;11.498;2023-04-12T07:52:03;6.70;;;2.37;;
3523;SDS011;1776;53.330;11.498;2023-04-12T07:54:28;1.93;;;1.40;;
3523;SDS011;1776;53.330;11.498;2023-04-12T07:57:00;7.00;;;1.43;;
3523;SDS011;1776;53.330;11.498;2023-04-12T07:59:27;7.03;;;2.03;;
3523;SDS011;1776;53.330;11.498;2023-04-12T08:01:52;7.43;;;1.83;;
3523;SDS011;1776;53.330;11.498;2023-04-12T08:04:18;9.60;;;2.17;;
3523;SDS011;1776;53.330;11.498;2023-04-12T08:06:43;3.30;;;1.80;;
3523;SDS011;1776;53.330;11.498;2023-04-12T08:09:08;5.80;;;2.40;;
3523;SDS011;1776;53.330;11.498;2023-04-12T08:11:33;4.13;;;2.07;;
3523;SDS011;1776;53.330;11.498;2023-04-12T08:13:59;4.67;;;1.90;;
3523;SDS011;1776;53.330;11.498;2023-04-12T08:16:25;6.53;;;1.63;;
3523;SDS011;1776;53.330;11.498;2023-04-12T08:18:51;6.10;;;2.40;;
3523;SDS011;1776;53.330;11.498;2023-04-12T08:21:16;6.90;;;1.87;;
3523;SDS011;1776;53.330;11.498;2023-04-12T08:23:41;2.03;;;1.40;;
3523;SDS011;1776;53.330;11.498;2023-04-12T08:26:07;10.73;;;1.87;;
3523;SDS011;1776;53.330;11.498;2023-04-12T08:28:33;3.60;;;1.70;;
3523;SDS011;1776;53.330;11.498;2023-04-12T08:30:58;5.03;;;2.00;;
3523;SDS011;1776;53.330;11.498;2023-04-12T08:33:24;2.97;;;1.80;;
3523;SDS011;1776;53.330;11.498;2023-04-12T08:35:49;11.87;;;2.20;;
3523;SDS011;1776;53.330;11.498;2023-04-12T08:38:16;4.30;;;1.70;;
3523;SDS011;1776;53.330;11.498;2023-04-12T08:40:41;3.27;;;1.23;;
3523;SDS011;1776;53.330;11.498;2023-04-12T08:43:07;3.90;;;1.60;;
3523;SDS011;1776;53.330;11.498;2023-04-12T08:45:36;4.00;;;1.53;;
3523;SDS011;1776;53.330;11.498;2023-04-12T08:48:03;5.60;;;1.97;;
3523;SDS011;1776;53.330;11.498;2023-04-12T08:50:29;8.50;;;1.63;;
3523;SDS011;1776;53.330;11.498;2023-04-12T08:52:55;4.43;;;1.80;;
3523;SDS011;1776;53.330;11.498;2023-04-12T08:55:22;4.40;;;2.00;;
3523;SDS011;1776;53.330;11.498;2023-04-12T08:57:47;3.13;;;2.00;;
3523;SDS011;1776;53.330;11.498;2023-04-12T09:00:14;7.93;;;1.67;;
3523;SDS011;1776;53.330;11.498;2023-04-12T09:02:40;5.90;;;2.10;;
3523;SDS011;1776;53.330;11.498;2023-04-12T09:05:10;8.33;;;2.57;;
3523;SDS011;1776;53.330;11.498;2023-04-12T09:07:36;6.50;;;2.30;;
3523;SDS011;1776;53.330;11.498;2023-04-12T09:10:01;8.83;;;1.63;;
3523;SDS011;1776;53.330;11.498;2023-04-12T09:12:28;4.20;;;2.10;;
3523;SDS011;1776;53.330;11.498;2023-04-12T09:15:10;6.20;;;2.13;;
3523;SDS011;1776;53.330;11.498;2023-04-12T09:17:37;7.17;;;1.67;;
3523;SDS011;1776;53.330;11.498;2023-04-12T09:22:40;4.40;;;1.37;;
3523;SDS011;1776;53.330;11.498;2023-04-12T09:25:09;2.13;;;1.90;;
3523;SDS011;1776;53.330;11.498;2023-04-12T09:27:47;4.87;;;2.27;;
3523;SDS011;1776;53.330;11.498;2023-04-12T09:30:14;3.73;;;2.33;;
3523;SDS011;1776;53.330;11.498;2023-04-12T09:32:41;5.47;;;1.70;;
3523;SDS011;1776;53.330;11.498;2023-04-12T09:35:06;3.13;;;2.30;;
3523;SDS011;1776;53.330;11.498;2023-04-12T09:37:32;4.40;;;2.20;;
3523;SDS011;1776;53.330;11.498;2023-04-12T09:39:58;6.37;;;2.57;;
3523;SDS011;1776;53.330;11.498;2023-04-12T09:42:25;6.27;;;2.67;;
3523;SDS011;1776;53.330;11.498;2023-04-12T09:44:51;5.00;;;1.70;;
3523;SDS011;1776;53.330;11.498;2023-04-12T09:47:18;9.70;;;2.30;;
3523;SDS011;1776;53.330;11.498;2023-04-12T09:49:44;2.90;;;1.80;;
3523;SDS011;1776;53.330;11.498;2023-04-12T09:52:10;4.50;;;1.90;;
3523;SDS011;1776;53.330;11.498;2023-04-12T09:54:40;5.90;;;2.10;;
3523;SDS011;1776;53.330;11.498;2023-04-12T09:57:07;5.10;;;2.20;;
3523;SDS011;1776;53.330;11.498;2023-04-12T09:59:37;6.53;;;2.30;;
3523;SDS011;1776;53.330;11.498;2023-04-12T10:04:38;3.00;;;1.60;;
3523;SDS011;1776;53.330;11.498;2023-04-12T10:07:05;5.70;;;1.70;;
3523;SDS011;1776;53.330;11.498;2023-04-12T10:09:31;5.90;;;1.73;;
3523;SDS011;1776;53.330;11.498;2023-04-12T10:11:57;5.80;;;1.67;;
3523;SDS011;1776;53.330;11.498;2023-04-12T10:14:26;4.00;;;1.90;;
3523;SDS011;1776;53.330;11.498;2023-04-12T10:16:56;6.40;;;1.60;;
3523;SDS011;1776;53.330;11.498;2023-04-12T10:19:23;4.10;;;2.03;;
3523;SDS011;1776;53.330;11.498;2023-04-12T10:21:49;5.40;;;1.80;;
3523;SDS011;1776;53.330;11.498;2023-04-12T10:24:14;8.17;;;2.27;;
3523;SDS011;1776;53.330;11.498;2023-04-12T10:26:41;3.40;;;1.60;;
3523;SDS011;1776;53.330;11.498;2023-04-12T10:29:29;5.00;;;1.73;;
3523;SDS011;1776;53.330;11.498;2023-04-12T10:31:55;6.17;;;1.70;;
3523;SDS011;1776;53.330;11.498;2023-04-12T10:34:28;6.23;;;1.97;;
3523;SDS011;1776;53.330;11.498;2023-04-12T10:39:33;2.63;;;1.40;;
3523;SDS011;1776;53.330;11.498;2023-04-12T10:44:44;6.20;;;2.23;;
3523;SDS011;1776;53.330;11.498;2023-04-12T10:47:10;3.93;;;1.57;;
3523;SDS011;1776;53.330;11.498;2023-04-12T10:49:35;4.60;;;1.57;;
3523;SDS011;1776;53.330;11.498;2023-04-12T10:52:11;4.17;;;1.63;;
3523;SDS011;1776;53.330;11.498;2023-04-12T10:54:37;3.20;;;1.50;;
3523;SDS011;1776;53.330;11.498;2023-04-12T10:57:04;7.33;;;1.37;;
3523;SDS011;1776;53.330;11.498;2023-04-12T11:02:19;5.53;;;1.53;;
3523;SDS011;1776;53.330;11.498;2023-04-12T11:07:39;3.23;;;1.50;;
3523;SDS011;1776;53.330;11.498;2023-04-12T11:10:12;4.20;;;1.73;;
3523;SDS011;1776;53.330;11.498;2023-04-12T11:12:39;4.83;;;1.50;;
3523;SDS011;1776;53.330;11.498;2023-04-12T11:15:05;4.40;;;1.27;;
3523;SDS011;1776;53.330;11.498;2023-04-12T11:17:31;1.67;;;1.23;;
3523;SDS011;1776;53.330;11.498;2023-04-12T11:19:57;4.30;;;2.70;;
3523;SDS011;1776;53.330;11.498;2023-04-12T11:22:25;4.60;;;1.83;;
3523;SDS011;1776;53.330;11.498;2023-04-12T11:24:56;7.37;;;3.00;;
3523;SDS011;1776;53.330;11.498;2023-04-12T11:27:24;4.77;;;1.67;;
3523;SDS011;1776;53.330;11.498;2023-04-12T11:29:57;6.17;;;1.93;;
3523;SDS011;1776;53.330;11.498;2023-04-12T11:32:26;6.43;;;2.23;;
3523;SDS011;1776;53.330;11.498;2023-04-12T11:34:54;5.93;;;1.60;;
3523;SDS011;1776;53.330;11.498;2023-04-12T11:37:21;3.87;;;2.23;;
3523;SDS011;1776;53.330;11.498;2023-04-12T11:39:48;6.30;;;1.90;;
3523;SDS011;1776;53.330;11.498;2023-04-12T11:42:16;7.93;;;1.80;;
3523;SDS011;1776;53.330;11.498;2023-04-12T11:44:44;6.77;;;1.80;;
3523;SDS011;1776;53.330;11.498;2023-04-12T11:47:17;12.17;;;2.20;;
3523;SDS011;1776;53.330;11.498;2023-04-12T11:49:44;6.47;;;1.77;;
3523;SDS011;1776;53.330;11.498;2023-04-12T11:52:11;10.70;;;2.50;;
3523;SDS011;1776;53.330;11.498;2023-04-12T11:54:40;5.90;;;2.27;;
3523;SDS011;1776;53.330;11.498;2023-04-12T11:57:06;6.77;;;2.40;;
3523;SDS011;1776;53.330;11.498;2023-04-12T11:59:31;2.93;;;1.53;;
3523;SDS011;1776;53.330;11.498;2023-04-12T12:01:58;12.00;;;2.90;;
3523;SDS011;1776;53.330;11.498;2023-04-12T12:04:26;5.40;;;2.03;;
3523;SDS011;1776;53.330;11.498;2023-04-12T12:06:53;6.43;;;2.80;;
3523;SDS011;1776;53.330;11.498;2023-04-12T12:09:20;4.00;;;1.40;;
3523;SDS011;1776;53.330;11.498;2023-04-12T12:11:46;2.90;;;1.80;;
3523;SDS011;1776;53.330;11.498;2023-04-12T12:14:11;3.90;;;1.50;;
3523;SDS011;1776;53.330;11.498;2023-04-12T12:16:42;6.67;;;1.50;;
3523;SDS011;1776;53.330;11.498;2023-04-12T12:19:25;7.77;;;2.20;;
3523;SDS011;1776;53.330;11.498;2023-04-12T12:21:51;7.87;;;2.10;;
3523;SDS011;1776;53.330;11.498;2023-04-12T12:24:16;4.27;;;2.10;;
3523;SDS011;1776;53.330;11.498;2023-04-12T12:26:41;6.10;;;2.27;;
3523;SDS011;1776;53.330;11.498;2023-04-12T12:29:07;6.57;;;3.00;;
3523;SDS011;1776;53.330;11.498;2023-04-12T12:31:44;10.67;;;2.20;;
3523;SDS011;1776;53.330;11.498;2023-04-12T12:34:12;6.53;;;2.00;;
3523;SDS011;1776;53.330;11.498;2023-04-12T12:36:37;6.70;;;2.37;;
3523;SDS011;1776;53.330;11.498;2023-04-12T12:39:05;5.90;;;2.00;;
3523;SDS011;1776;53.330;11.498;2023-04-12T12:41:34;2.33;;;1.63;;
3523;SDS011;1776;53.330;11.498;2023-04-12T12:43:59;7.43;;;2.00;;
3523;SDS011;1776;53.330;11.498;2023-04-12T12:46:25;3.93;;;1.97;;
3523;SDS011;1776;53.330;11.498;2023-04-12T12:48:50;2.47;;;1.50;;
3523;SDS011;1776;53.330;11.498;2023-04-12T12:51:15;5.63;;;2.03;;
3523;SDS011;1776;53.330;11.498;2023-04-12T12:53:42;7.17;;;2.00;;
3523;SDS011;1776;53.330;11.498;2023-04-12T12:56:07;8.07;;;2.03;;
3523;SDS011;1776;53.330;11.498;2023-04-12T12:58:34;6.73;;;1.70;;
3523;SDS011;1776;53.330;11.498;2023-04-12T13:01:00;4.63;;;2.17;;
3523;SDS011;1776;53.330;11.498;2023-04-12T13:03:26;5.23;;;2.30;;
3523;SDS011;1776;53.330;11.498;2023-04-12T13:05:51;7.93;;;2.30;;
3523;SDS011;1776;53.330;11.498;2023-04-12T13:08:29;5.20;;;2.30;;
3523;SDS011;1776;53.330;11.498;2023-04-12T13:10:59;9.07;;;2.10;;
3523;SDS011;1776;53.330;11.498;2023-04-12T13:13:24;8.40;;;2.40;;
3523;SDS011;1776;53.330;11.498;2023-04-12T13:15:49;4.90;;;2.20;;
3523;SDS011;1776;53.330;11.498;2023-04-12T13:18:16;4.50;;;1.80;;
3523;SDS011;1776;53.330;11.498;2023-04-12T13:20:42;3.57;;;2.10;;
3523;SDS011;1776;53.330;11.498;2023-04-12T13:23:07;5.90;;;2.53;;
3523;SDS011;1776;53.330;11.498;2023-04-12T13:25:32;6.70;;;2.10;;
3523;SDS011;1776;53.330;11.498;2023-04-12T13:27:58;5.87;;;2.10;;
3523;SDS011;1776;53.330;11.498;2023-04-12T13:30:23;5.13;;;2.33;;
3523;SDS011;1776;53.330;11.498;2023-04-12T13:32:48;2.40;;;1.87;;
3523;SDS011;1776;53.330;11.498;2023-04-12T13:35:13;4.27;;;2.23;;
3523;SDS011;1776;53.330;11.498;2023-04-12T13:37:39;4.63;;;2.70;;
3523;SDS011;1776;53.330;11.498;2023-04-12T13:40:04;2.77;;;2.47;;
3523;SDS011;1776;53.330;11.498;2023-04-12T13:42:30;6.83;;;2.90;;
3523;SDS011;1776;53.330;11.498;2023-04-12T13:44:56;5.40;;;3.30;;
3523;SDS011;1776;53.330;11.498;2023-04-12T13:47:21;4.23;;;2.77;;
3523;SDS011;1776;53.330;11.498;2023-04-12T13:49:47;5.97;;;3.00;;
3523;SDS011;1776;53.330;11.498;2023-04-12T13:52:12;7.10;;;2.80;;
3523;SDS011;1776;53.330;11.498;2023-04-12T13:54:37;5.20;;;2.60;;
3523;SDS011;1776;53.330;11.498;2023-04-12T13:57:03;10.57;;;3.90;;
3523;SDS011;1776;53.330;11.498;2023-04-12T13:59:29;5.90;;;3.47;;
3523;SDS011;1776;53.330;11.498;2023-04-12T14:01:54;7.10;;;3.13;;
3523;SDS011;1776;53.330;11.498;2023-04-12T14:04:20;6.17;;;2.93;;
3523;SDS011;1776;53.330;11.498;2023-04-12T14:06:45;5.63;;;3.30;;
3523;SDS011;1776;53.330;11.498;2023-04-12T14:09:29;8.20;;;2.90;;
3523;SDS011;1776;53.330;11.498;2023-04-12T14:11:57;8.33;;;3.40;;
3523;SDS011;1776;53.330;11.498;2023-04-12T14:14:24;6.27;;;3.57;;
3523;SDS011;1776;53.330;11.498;2023-04-12T14:16:50;4.83;;;2.67;;
3523;SDS011;1776;53.330;11.498;2023-04-12T14:19:17;4.77;;;2.97;;
3523;SDS011;1776;53.330;11.498;2023-04-12T14:21:43;7.80;;;3.90;;
3523;SDS011;1776;53.330;11.498;2023-04-12T14:24:09;6.50;;;3.10;;
3523;SDS011;1776;53.330;11.498;2023-04-12T14:26:34;8.93;;;3.53;;
3523;SDS011;1776;53.330;11.498;2023-04-12T14:29:00;3.90;;;3.20;;
3523;SDS011;1776;53.330;11.498;2023-04-12T14:31:25;5.00;;;3.53;;
3523;SDS011;1776;53.330;11.498;2023-04-12T14:33:51;6.70;;;2.70;;
3523;SDS011;1776;53.330;11.498;2023-04-12T14:36:17;9.20;;;3.00;;
3523;SDS011;1776;53.330;11.498;2023-04-12T14:38:42;4.03;;;3.10;;
3523;SDS011;1776;53.330;11.498;2023-04-12T14:41:08;4.60;;;3.57;;
3523;SDS011;1776;53.330;11.498;2023-04-12T14:43:33;12.30;;;3.33;;
3523;SDS011;1776;53.330;11.498;2023-04-12T14:45:59;7.80;;;3.10;;
3523;SDS011;1776;53.330;11.498;2023-04-12T14:48:24;10.17;;;3.60;;
3523;SDS011;1776;53.330;11.498;2023-04-12T14:50:49;5.10;;;4.17;;
3523;SDS011;1776;53.330;11.498;2023-04-12T14:53:15;6.77;;;4.00;;
3523;SDS011;1776;53.330;11.498;2023-04-12T14:55:42;7.90;;;4.50;;
3523;SDS011;1776;53.330;11.498;2023-04-12T14:58:08;6.70;;;3.70;;
3523;SDS011;1776;53.330;11.498;2023-04-12T15:00:33;4.80;;;3.80;;
3523;SDS011;1776;53.330;11.498;2023-04-12T15:02:58;4.60;;;3.10;;
3523;SDS011;1776;53.330;11.498;2023-04-12T15:05:24;5.17;;;3.63;;
3523;SDS011;1776;53.330;11.498;2023-04-12T15:07:51;4.50;;;3.63;;
3523;SDS011;1776;53.330;11.498;2023-04-12T15:10:17;13.33;;;4.40;;
3523;SDS011;1776;53.330;11.498;2023-04-12T15:12:44;9.60;;;3.43;;
3523;SDS011;1776;53.330;11.498;2023-04-12T15:15:10;6.80;;;4.10;;
3523;SDS011;1776;53.330;11.498;2023-04-12T15:17:35;6.47;;;3.50;;